sensor_id;sensor_type;location;lat;lon;timestamp;pressure;altitude;pressure_sealevel;temperature
78917;BMP280;68315;48.608;11.436;2024-01-15T00:01:51;95926.34;;;-2.66
78917;BMP280;68315;48.608;11.436;2024-01-15T00:04:17;95934.69;;;-2.78
78917;BMP280;68315;48.608;11.436;2024-01-15T00:06:42;95939.81;;;-2.81
78917;BMP280;68315;48.608;11.436;2024-01-15T00:09:07;95932.47;;;-2.80
78917;BMP280;68315;48.608;11.436;2024-01-15T00:11:33;95946.47;;;-2.91
78917;BMP280;68315;48.608;11.436;2024-01-15T00:13:58;95940.66;;;-2.89
78917;BMP280;68315;48.608;11.436;2024-01-15T00:16:23;95953.34;;;-2.90
78917;BMP280;68315;48.608;11.436;2024-01-15T00:18:49;95946.47;;;-2.91
78917;BMP280;68315;48.608;11.436;2024-01-15T00:21:14;95962.69;;;-3.00
78917;BMP280;68315;48.608;11.436;2024-01-15T00:23:42;95957.31;;;-3.00
78917;BMP280;68315;48.608;11.436;2024-01-15T00:26:08;95952.88;;;-3.03
78917;BMP280;68315;48.608;11.436;2024-01-15T00:28:34;95953.31;;;-3.04
78917;BMP280;68315;48.608;11.436;2024-01-15T00:30:59;95942.03;;;-2.94
78917;BMP280;68315;48.608;11.436;2024-01-15T00:33:24;95947.41;;;-2.94
78917;BMP280;68315;48.608;11.436;2024-01-15T00:35:49;95939.63;;;-2.92
78917;BMP280;68315;48.608;11.436;2024-01-15T00:38:15;95929.31;;;-2.93
78917;BMP280;68315;48.608;11.436;2024-01-15T00:40:40;95930.34;;;-2.91
78917;BMP280;68315;48.608;11.436;2024-01-15T00:43:05;95931.56;;;-2.92
78917;BMP280;68315;48.608;11.436;2024-01-15T00:45:32;95930.16;;;-2.87
78917;BMP280;68315;48.608;11.436;2024-01-15T00:47:57;95940.66;;;-2.89
78917;BMP280;68315;48.608;11.436;2024-01-15T00:50:24;95931.56;;;-2.92
78917;BMP280;68315;48.608;11.436;2024-01-15T00:52:49;95940.81;;;-2.93
78917;BMP280;68315;48.608;11.436;2024-01-15T00:55:15;95943.59;;;-3.02
78917;BMP280;68315;48.608;11.436;2024-01-15T00:57:40;95948.97;;;-3.02
78917;BMP280;68315;48.608;11.436;2024-01-15T01:00:06;95951.56;;;-2.93
78917;BMP280;68315;48.608;11.436;2024-01-15T01:02:32;95969.72;;;-2.88
78917;BMP280;68315;48.608;11.436;2024-01-15T01:04:57;95971.97;;;-2.86
78917;BMP280;68315;48.608;11.436;2024-01-15T01:07:23;95970.28;;;-2.84
78917;BMP280;68315;48.608;11.436;2024-01-15T01:09:48;95971.69;;;-2.88
78917;BMP280;68315;48.608;11.436;2024-01-15T01:12:14;95959.81;;;-2.82
78917;BMP280;68315;48.608;11.436;2024-01-15T01:14:39;95972.31;;;-2.78
78917;BMP280;68315;48.608;11.436;2024-01-15T01:17:04;95968.44;;;-2.77
78917;BMP280;68315;48.608;11.436;2024-01-15T01:19:30;95968.25;;;-2.74
78917;BMP280;68315;48.608;11.436;2024-01-15T01:21:55;95967.28;;;-2.71
78917;BMP280;68315;48.608;11.436;2024-01-15T01:24:20;95958.59;;;-2.66
78917;BMP280;68315;48.608;11.436;2024-01-15T01:26:46;95964.72;;;-2.65
78917;BMP280;68315;48.608;11.436;2024-01-15T01:29:11;95965.25;;;-2.61
78917;BMP280;68315;48.608;11.436;2024-01-15T01:31:42;95962.84;;;-2.59
78917;BMP280;68315;48.608;11.436;2024-01-15T01:34:07;95964.06;;;-2.60
78917;BMP280;68315;48.608;11.436;2024-01-15T01:36:32;95968.03;;;-2.56
78917;BMP280;68315;48.608;11.436;2024-01-15T01:38:58;95964.16;;;-2.55
78917;BMP280;68315;48.608;11.436;2024-01-15T01:41:23;95957.47;;;-2.59
78917;BMP280;68315;48.608;11.436;2024-01-15T01:43:49;95964.22;;;-2.64
78917;BMP280;68315;48.608;11.436;2024-01-15T01:46:15;95958.69;;;-2.60
78917;BMP280;68315;48.608;11.436;2024-01-15T01:48:41;95951.03;;;-2.47
78917;BMP280;68315;48.608;11.436;2024-01-15T01:51:07;95960.03;;;-2.50
78917;BMP280;68315;48.608;11.436;2024-01-15T01:53:34;95954.56;;;-2.41
78917;BMP280;68315;48.608;11.436;2024-01-15T01:56:00;95951.00;;;-2.33
78917;BMP280;68315;48.608;11.436;2024-01-15T01:58:26;95950.19;;;-2.39
78917;BMP280;68315;48.608;11.436;2024-01-15T02:00:53;95947.97;;;-2.40
78917;BMP280;68315;48.608;11.436;2024-01-15T02:03:18;95962.44;;;-2.38
78917;BMP280;68315;48.608;11.436;2024-01-15T02:05:43;95955.97;;;-2.46
78917;BMP280;68315;48.608;11.436;2024-01-15T02:08:11;95962.06;;;-2.45
78917;BMP280;68315;48.608;11.436;2024-01-15T02:10:37;95960.38;;;-2.43
78917;BMP280;68315;48.608;11.436;2024-01-15T02:13:02;95961.81;;;-2.47
78917;BMP280;68315;48.608;11.436;2024-01-15T02:15:27;95958.28;;;-2.53
78917;BMP280;68315;48.608;11.436;2024-01-15T02:17:59;95962.47;;;-2.52
78917;BMP280;68315;48.608;11.436;2024-01-15T02:20:25;95965.25;;;-2.61
78917;BMP280;68315;48.608;11.436;2024-01-15T02:22:51;95964.22;;;-2.64
78917;BMP280;68315;48.608;11.436;2024-01-15T02:25:16;95962.75;;;-2.65
78917;BMP280;68315;48.608;11.436;2024-01-15T02:27:42;95956.47;;;-2.62
78917;BMP280;68315;48.608;11.436;2024-01-15T02:30:10;95959.03;;;-2.67
78917;BMP280;68315;48.608;11.436;2024-01-15T02:32:36;95959.59;;;-2.63
78917;BMP280;68315;48.608;11.436;2024-01-15T02:35:01;95959.59;;;-2.63
78917;BMP280;68315;48.608;11.436;2024-01-15T02:37:26;95961.53;;;-2.64
78917;BMP280;68315;48.608;11.436;2024-01-15T02:39:51;95968.59;;;-2.66
78917;BMP280;68315;48.608;11.436;2024-01-15T02:42:17;95958.78;;;-2.69
78917;BMP280;68315;48.608;11.436;2024-01-15T02:44:42;95962.03;;;-2.65
78917;BMP280;68315;48.608;11.436;2024-01-15T02:47:07;95957.09;;;-2.67
78917;BMP280;68315;48.608;11.436;2024-01-15T02:49:32;95957.03;;;-2.72
78917;BMP280;68315;48.608;11.436;2024-01-15T02:51:58;95961.38;;;-2.75
78917;BMP280;68315;48.608;11.436;2024-01-15T02:54:23;95956.28;;;-2.88
78917;BMP280;68315;48.608;11.436;2024-01-15T02:56:48;95950.66;;;-2.90
78917;BMP280;68315;48.608;11.436;2024-01-15T02:59:13;95961.66;;;-2.88
78917;BMP280;68315;48.608;11.436;2024-01-15T03:01:39;95958.44;;;-2.92
78917;BMP280;68315;48.608;11.436;2024-01-15T03:04:04;95959.78;;;-2.96
78917;BMP280;68315;48.608;11.436;2024-01-15T03:06:29;95954.34;;;-3.02
78917;BMP280;68315;48.608;11.436;2024-01-15T03:08:54;95959.00;;;-3.02
78917;BMP280;68315;48.608;11.436;2024-01-15T03:11:20;95973.34;;;-3.05
78917;BMP280;68315;48.608;11.436;2024-01-15T03:13:45;95958.78;;;-3.13
78917;BMP280;68315;48.608;11.436;2024-01-15T03:16:10;95961.38;;;-3.19
78917;BMP280;68315;48.608;11.436;2024-01-15T03:18:35;95948.53;;;-3.15
78917;BMP280;68315;48.608;11.436;2024-01-15T03:21:00;95953.53;;;-3.08
78917;BMP280;68315;48.608;11.436;2024-01-15T03:23:26;95954.25;;;-3.07
78917;BMP280;68315;48.608;11.436;2024-01-15T03:25:51;95945.91;;;-2.95
78917;BMP280;68315;48.608;11.436;2024-01-15T03:28:17;95938.41;;;-2.91
78917;BMP280;68315;48.608;11.436;2024-01-15T03:30:42;95940.06;;;-2.93
78917;BMP280;68315;48.608;11.436;2024-01-15T03:33:07;95931.41;;;-2.88
78917;BMP280;68315;48.608;11.436;2024-01-15T03:35:32;95944.09;;;-2.89
78917;BMP280;68315;48.608;11.436;2024-01-15T03:37:58;95940.66;;;-2.89
78917;BMP280;68315;48.608;11.436;2024-01-15T03:40:23;95950.91;;;-2.88
78917;BMP280;68315;48.608;11.436;2024-01-15T03:42:48;95950.66;;;-2.90
78917;BMP280;68315;48.608;11.436;2024-01-15T03:45:13;95943.22;;;-2.95
78917;BMP280;68315;48.608;11.436;2024-01-15T03:47:39;95941.47;;;-2.98
78917;BMP280;68315;48.608;11.436;2024-01-15T03:50:05;95945.91;;;-2.95
78917;BMP280;68315;48.608;11.436;2024-01-15T03:52:30;95945.00;;;-2.92
78917;BMP280;68315;48.608;11.436;2024-01-15T03:54:55;95940.81;;;-2.78
78917;BMP280;68315;48.608;11.436;2024-01-15T03:57:21;95932.28;;;-2.76
78917;BMP280;68315;48.608;11.436;2024-01-15T03:59:46;95936.88;;;-2.62
78917;BMP280;68315;48.608;11.436;2024-01-15T04:02:12;95942.34;;;-2.57
78917;BMP280;68315;48.608;11.436;2024-01-15T04:04:41;95941.53;;;-2.63
78917;BMP280;68315;48.608;11.436;2024-01-15T04:07:06;95948.94;;;-2.58
78917;BMP280;68315;48.608;11.436;2024-01-15T04:09:32;95947.28;;;-2.55
78917;BMP280;68315;48.608;11.436;2024-01-15T04:11:57;95954.94;;;-2.48
78917;BMP280;68315;48.608;11.436;2024-01-15T04:14:23;95952.25;;;-2.48
78917;BMP280;68315;48.608;11.436;2024-01-15T04:16:48;95941.31;;;-2.45
78917;BMP280;68315;48.608;11.436;2024-01-15T04:19:14;95948.25;;;-2.38
78917;BMP280;68315;48.608;11.436;2024-01-15T04:21:39;95937.56;;;-2.33
78917;BMP280;68315;48.608;11.436;2024-01-15T04:24:04;95940.69;;;-2.19
78917;BMP280;68315;48.608;11.436;2024-01-15T04:26:30;95940.06;;;-2.09
78917;BMP280;68315;48.608;11.436;2024-01-15T04:28:55;95939.34;;;-2.09
78917;BMP280;68315;48.608;11.436;2024-01-15T04:31:22;95937.78;;;-1.96
78917;BMP280;68315;48.608;11.436;2024-01-15T04:33:47;95934.16;;;-1.93
78917;BMP280;68315;48.608;11.436;2024-01-15T04:36:13;95932.94;;;-1.92
78917;BMP280;68315;48.608;11.436;2024-01-15T04:38:38;95925.66;;;-1.86
78917;BMP280;68315;48.608;11.436;2024-01-15T04:41:04;95931.88;;;-1.80
78917;BMP280;68315;48.608;11.436;2024-01-15T04:43:29;95928.31;;;-1.71
78917;BMP280;68315;48.608;11.436;2024-01-15T04:45:54;95924.25;;;-1.61
78917;BMP280;68315;48.608;11.436;2024-01-15T04:48:20;95920.38;;;-1.54
78917;BMP280;68315;48.608;11.436;2024-01-15T04:50:45;95917.28;;;-1.47
78917;BMP280;68315;48.608;11.436;2024-01-15T04:53:11;95920.97;;;-1.45
78917;BMP280;68315;48.608;11.436;2024-01-15T04:55:36;95921.06;;;-1.34
78917;BMP280;68315;48.608;11.436;2024-01-15T04:58:01;95921.94;;;-1.22
78917;BMP280;68315;48.608;11.436;2024-01-15T05:00:27;95919.09;;;-1.13
78917;BMP280;68315;48.608;11.436;2024-01-15T05:02:52;95915.91;;;-1.11
78917;BMP280;68315;48.608;11.436;2024-01-15T05:05:17;95910.56;;;-1.06
78917;BMP280;68315;48.608;11.436;2024-01-15T05:07:42;95904.25;;;-0.97
78917;BMP280;68315;48.608;11.436;2024-01-15T05:10:08;95903.75;;;-0.96
78917;BMP280;68315;48.608;11.436;2024-01-15T05:12:33;95909.25;;;-0.85
78917;BMP280;68315;48.608;11.436;2024-01-15T05:14:58;95901.75;;;-0.70
78917;BMP280;68315;48.608;11.436;2024-01-15T05:17:24;95913.56;;;-0.62
78917;BMP280;68315;48.608;11.436;2024-01-15T05:19:49;95907.66;;;-0.66
78917;BMP280;68315;48.608;11.436;2024-01-15T05:22:14;95905.69;;;-0.65
78917;BMP280;68315;48.608;11.436;2024-01-15T05:24:39;95917.47;;;-0.63
78917;BMP280;68315;48.608;11.436;2024-01-15T05:27:05;95913.81;;;-0.60
78917;BMP280;68315;48.608;11.436;2024-01-15T05:29:30;95909.13;;;-0.65
78917;BMP280;68315;48.608;11.436;2024-01-15T05:31:55;95922.88;;;-0.63
78917;BMP280;68315;48.608;11.436;2024-01-15T05:34:20;95928.97;;;-0.62
78917;BMP280;68315;48.608;11.436;2024-01-15T05:36:45;95929.28;;;-0.54
78917;BMP280;68315;48.608;11.436;2024-01-15T05:39:13;95924.91;;;-0.52
78917;BMP280;68315;48.608;11.436;2024-01-15T05:41:38;95922.66;;;-0.53
78917;BMP280;68315;48.608;11.436;2024-01-15T05:44:03;95918.50;;;-0.54
78917;BMP280;68315;48.608;11.436;2024-01-15T05:46:28;95918.75;;;-0.52
78917;BMP280;68315;48.608;11.436;2024-01-15T05:48:54;95915.31;;;-0.53
78917;BMP280;68315;48.608;11.436;2024-01-15T05:51:19;95914.84;;;-0.51
78917;BMP280;68315;48.608;11.436;2024-01-15T05:53:44;95917.06;;;-0.50
78917;BMP280;68315;48.608;11.436;2024-01-15T05:56:10;95921.72;;;-0.45
78917;BMP280;68315;48.608;11.436;2024-01-15T05:58:35;95925.19;;;-0.39
78917;BMP280;68315;48.608;11.436;2024-01-15T06:01:00;95925.94;;;-0.38
78917;BMP280;68315;48.608;11.436;2024-01-15T06:03:25;95923.97;;;-0.43
78917;BMP280;68315;48.608;11.436;2024-01-15T06:05:51;95917.31;;;-0.48
78917;BMP280;68315;48.608;11.436;2024-01-15T06:08:16;95913.38;;;-0.47
78917;BMP280;68315;48.608;11.436;2024-01-15T06:10:41;95910.72;;;-0.41
78917;BMP280;68315;48.608;11.436;2024-01-15T06:13:06;95906.25;;;-0.50
78917;BMP280;68315;48.608;11.436;2024-01-15T06:15:32;95903.31;;;-0.52
78917;BMP280;68315;48.608;11.436;2024-01-15T06:17:57;95900.84;;;-0.56
78917;BMP280;68315;48.608;11.436;2024-01-15T06:20:22;95893.00;;;-0.53
78917;BMP280;68315;48.608;11.436;2024-01-15T06:22:47;95894.28;;;-0.43
78917;BMP280;68315;48.608;11.436;2024-01-15T06:25:13;95887.91;;;-0.46
78917;BMP280;68315;48.608;11.436;2024-01-15T06:27:38;95878.34;;;-0.47
78917;BMP280;68315;48.608;11.436;2024-01-15T06:30:04;95872.44;;;-0.51
78917;BMP280;68315;48.608;11.436;2024-01-15T06:32:29;95870.47;;;-0.45
78917;BMP280;68315;48.608;11.436;2024-01-15T06:34:55;95858.50;;;-0.38
78917;BMP280;68315;48.608;11.436;2024-01-15T06:37:20;95875.69;;;-0.36
78917;BMP280;68315;48.608;11.436;2024-01-15T06:39:45;95866.66;;;-0.27
78917;BMP280;68315;48.608;11.436;2024-01-15T06:42:11;95868.66;;;-0.22
78917;BMP280;68315;48.608;11.436;2024-01-15T06:44:36;95879.22;;;-0.19
78917;BMP280;68315;48.608;11.436;2024-01-15T06:47:01;95874.84;;;-0.05
78917;BMP280;68315;48.608;11.436;2024-01-15T06:49:30;95876.81;;;-0.06
78917;BMP280;68315;48.608;11.436;2024-01-15T06:51:55;95868.22;;;-0.04
78917;BMP280;68315;48.608;11.436;2024-01-15T06:54:21;95865.28;;;-0.06
78917;BMP280;68315;48.608;11.436;2024-01-15T06:56:46;95871.91;;;-0.07
78917;BMP280;68315;48.608;11.436;2024-01-15T06:59:11;95862.81;;;-0.15
78917;BMP280;68315;48.608;11.436;2024-01-15T07:01:36;95861.53;;;-0.25
78917;BMP280;68315;48.608;11.436;2024-01-15T07:04:02;95865.88;;;-0.33
78917;BMP280;68315;48.608;11.436;2024-01-15T07:06:28;95869.53;;;-0.36
78917;BMP280;68315;48.608;11.436;2024-01-15T07:08:53;95868.53;;;-0.44
78917;BMP280;68315;48.608;11.436;2024-01-15T07:11:18;95875.91;;;-0.39
78917;BMP280;68315;48.608;11.436;2024-01-15T07:13:44;95875.00;;;-0.31
78917;BMP280;68315;48.608;11.436;2024-01-15T07:16:09;95887.03;;;-0.32
78917;BMP280;68315;48.608;11.436;2024-01-15T07:18:34;95877.69;;;-0.31
78917;BMP280;68315;48.608;11.436;2024-01-15T07:21:00;95890.22;;;-0.28
78917;BMP280;68315;48.608;11.436;2024-01-15T07:23:26;95874.78;;;-0.22
78917;BMP280;68315;48.608;11.436;2024-01-15T07:25:52;95873.06;;;-0.19
78917;BMP280;68315;48.608;11.436;2024-01-15T07:28:18;95876.28;;;-0.21
78917;BMP280;68315;48.608;11.436;2024-01-15T07:30:43;95866.47;;;-0.18
78917;BMP280;68315;48.608;11.436;2024-01-15T07:33:10;95849.03;;;-0.23
78917;BMP280;68315;48.608;11.436;2024-01-15T07:35:35;95861.78;;;-0.23
78917;BMP280;68315;48.608;11.436;2024-01-15T07:38:01;95866.22;;;-0.20
78917;BMP280;68315;48.608;11.436;2024-01-15T07:40:26;95858.56;;;-0.27
78917;BMP280;68315;48.608;11.436;2024-01-15T07:42:51;95867.63;;;-0.30
78917;BMP280;68315;48.608;11.436;2024-01-15T07:45:17;95873.78;;;-0.30
78917;BMP280;68315;48.608;11.436;2024-01-15T07:47:43;95882.88;;;-0.27
78917;BMP280;68315;48.608;11.436;2024-01-15T07:50:09;95886.06;;;-0.23
78917;BMP280;68315;48.608;11.436;2024-01-15T07:52:34;95883.63;;;-0.21
78917;BMP280;68315;48.608;11.436;2024-01-15T07:55:00;95882.91;;;-0.16
78917;BMP280;68315;48.608;11.436;2024-01-15T07:57:26;95885.16;;;-0.09
78917;BMP280;68315;48.608;11.436;2024-01-15T07:59:51;95882.00;;;0.09
78917;BMP280;68315;48.608;11.436;2024-01-15T08:02:16;95892.13;;;0.20
78917;BMP280;68315;48.608;11.436;2024-01-15T08:04:42;95889.91;;;0.24
78917;BMP280;68315;48.608;11.436;2024-01-15T08:07:07;95878.34;;;0.23
78917;BMP280;68315;48.608;11.436;2024-01-15T08:09:33;95892.59;;;0.24
78917;BMP280;68315;48.608;11.436;2024-01-15T08:11:58;95878.13;;;0.21
78917;BMP280;68315;48.608;11.436;2024-01-15T08:14:24;95884.75;;;0.37
78917;BMP280;68315;48.608;11.436;2024-01-15T08:16:49;95874.69;;;0.32
78917;BMP280;68315;48.608;11.436;2024-01-15T08:19:14;95867.56;;;0.34
78917;BMP280;68315;48.608;11.436;2024-01-15T08:21:39;95866.09;;;0.33
78917;BMP280;68315;48.608;11.436;2024-01-15T08:24:05;95860.44;;;0.37
78917;BMP280;68315;48.608;11.436;2024-01-15T08:26:30;95859.94;;;0.38
78917;BMP280;68315;48.608;11.436;2024-01-15T08:28:56;95866.34;;;0.41
78917;BMP280;68315;48.608;11.436;2024-01-15T08:31:21;95873.22;;;0.47
78917;BMP280;68315;48.608;11.436;2024-01-15T08:33:47;95863.16;;;0.48
78917;BMP280;68315;48.608;11.436;2024-01-15T08:36:12;95869.78;;;0.52
78917;BMP280;68315;48.608;11.436;2024-01-15T08:38:37;95883.06;;;0.56
78917;BMP280;68315;48.608;11.436;2024-01-15T08:41:03;95868.31;;;0.63
78917;BMP280;68315;48.608;11.436;2024-01-15T08:43:28;95873.25;;;0.70
78917;BMP280;68315;48.608;11.436;2024-01-15T08:45:53;95880.63;;;0.69
78917;BMP280;68315;48.608;11.436;2024-01-15T08:48:19;95869.56;;;0.78
78917;BMP280;68315;48.608;11.436;2024-01-15T08:50:44;95866.63;;;0.76
78917;BMP280;68315;48.608;11.436;2024-01-15T08:53:11;95870.03;;;0.77
78917;BMP280;68315;48.608;11.436;2024-01-15T08:55:36;95869.31;;;0.82
78917;BMP280;68315;48.608;11.436;2024-01-15T08:58:02;95874.22;;;0.78
78917;BMP280;68315;48.608;11.436;2024-01-15T09:00:28;95874.47;;;0.91
78917;BMP280;68315;48.608;11.436;2024-01-15T09:02:53;95873.47;;;0.88
78917;BMP280;68315;48.608;11.436;2024-01-15T09:05:19;95877.44;;;0.93
78917;BMP280;68315;48.608;11.436;2024-01-15T09:07:44;95871.75;;;0.96
78917;BMP280;68315;48.608;11.436;2024-01-15T09:10:11;95871.75;;;1.02
78917;BMP280;68315;48.608;11.436;2024-01-15T09:12:36;95878.41;;;1.01
78917;BMP280;68315;48.608;11.436;2024-01-15T09:15:01;95887.72;;;1.00
78917;BMP280;68315;48.608;11.436;2024-01-15T09:17:29;95884.56;;;1.01
78917;BMP280;68315;48.608;11.436;2024-01-15T09:19:54;95881.13;;;1.01
78917;BMP280;68315;48.608;11.436;2024-01-15T09:22:20;95879.88;;;0.96
78917;BMP280;68315;48.608;11.436;2024-01-15T09:24:45;95883.06;;;1.00
78917;BMP280;68315;48.608;11.436;2024-01-15T09:27:11;95883.81;;;1.01
78917;BMP280;68315;48.608;11.436;2024-01-15T09:29:36;95861.69;;;1.02
78917;BMP280;68315;48.608;11.436;2024-01-15T09:32:05;95877.44;;;0.98
78917;BMP280;68315;48.608;11.436;2024-01-15T09:34:30;95883.81;;;1.01
78917;BMP280;68315;48.608;11.436;2024-01-15T09:36:56;95865.88;;;1.03
78917;BMP280;68315;48.608;11.436;2024-01-15T09:39:21;95891.69;;;1.10
78917;BMP280;68315;48.608;11.436;2024-01-15T09:41:49;95885.75;;;1.11
78917;BMP280;68315;48.608;11.436;2024-01-15T09:44:14;95885.00;;;1.22
78917;BMP280;68315;48.608;11.436;2024-01-15T09:46:41;95876.41;;;1.24
78917;BMP280;68315;48.608;11.436;2024-01-15T09:49:08;95887.97;;;1.24
78917;BMP280;68315;48.608;11.436;2024-01-15T09:51:34;95885.50;;;1.32
78917;BMP280;68315;48.608;11.436;2024-01-15T09:54:00;95889.16;;;1.34
78917;BMP280;68315;48.608;11.436;2024-01-15T09:56:26;95883.75;;;1.34
78917;BMP280;68315;48.608;11.436;2024-01-15T09:58:51;95876.84;;;1.39
78917;BMP280;68315;48.608;11.436;2024-01-15T10:01:20;95878.81;;;1.38
78917;BMP280;68315;48.608;11.436;2024-01-15T10:03:46;95868.00;;;1.44
78917;BMP280;68315;48.608;11.436;2024-01-15T10:06:15;95862.78;;;1.51
78917;BMP280;68315;48.608;11.436;2024-01-15T10:08:43;95864.28;;;1.52
78917;BMP280;68315;48.608;11.436;2024-01-15T10:11:11;95860.81;;;1.52
78917;BMP280;68315;48.608;11.436;2024-01-15T10:13:37;95855.13;;;1.55
78917;BMP280;68315;48.608;11.436;2024-01-15T10:16:02;95854.16;;;1.53
78917;BMP280;68315;48.608;11.436;2024-01-15T10:18:28;95846.78;;;1.53
78917;BMP280;68315;48.608;11.436;2024-01-15T10:20:53;95837.44;;;1.54
78917;BMP280;68315;48.608;11.436;2024-01-15T10:23:18;95832.25;;;1.56
78917;BMP280;68315;48.608;11.436;2024-01-15T10:25:44;95830.31;;;1.51
78917;BMP280;68315;48.608;11.436;2024-01-15T10:28:09;95831.81;;;1.52
78917;BMP280;68315;48.608;11.436;2024-01-15T10:30:35;95827.59;;;1.57
78917;BMP280;68315;48.608;11.436;2024-01-15T10:33:01;95811.59;;;1.59
78917;BMP280;68315;48.608;11.436;2024-01-15T10:35:30;95828.56;;;1.59
78917;BMP280;68315;48.608;11.436;2024-01-15T10:37:56;95822.41;;;1.64
78917;BMP280;68315;48.608;11.436;2024-01-15T10:40:21;95815.75;;;1.65
78917;BMP280;68315;48.608;11.436;2024-01-15T10:42:47;95820.41;;;1.70
78917;BMP280;68315;48.608;11.436;2024-01-15T10:45:13;95809.53;;;1.76
78917;BMP280;68315;48.608;11.436;2024-01-15T10:47:38;95816.94;;;1.75
78917;BMP280;68315;48.608;11.436;2024-01-15T10:50:05;95806.09;;;1.75
78917;BMP280;68315;48.608;11.436;2024-01-15T10:52:33;95808.81;;;1.75
78917;BMP280;68315;48.608;11.436;2024-01-15T10:54:59;95811.00;;;1.83
78917;BMP280;68315;48.608;11.436;2024-01-15T10:57:26;95811.00;;;1.83
78917;BMP280;68315;48.608;11.436;2024-01-15T10:59:51;95813.72;;;1.83
78917;BMP280;68315;48.608;11.436;2024-01-15T11:02:17;95812.13;;;1.93
78917;BMP280;68315;48.608;11.436;2024-01-15T11:04:42;95811.38;;;1.98
78917;BMP280;68315;48.608;11.436;2024-01-15T11:07:07;95808.91;;;2.00
78917;BMP280;68315;48.608;11.436;2024-01-15T11:09:34;95814.56;;;2.02
78917;BMP280;68315;48.608;11.436;2024-01-15T11:12:07;95824.16;;;2.03
78917;BMP280;68315;48.608;11.436;2024-01-15T11:14:41;95814.03;;;2.09
78917;BMP280;68315;48.608;11.436;2024-01-15T11:17:09;95808.84;;;2.11
78917;BMP280;68315;48.608;11.436;2024-01-15T11:22:08;95804.69;;;2.04
78917;BMP280;68315;48.608;11.436;2024-01-15T11:24:38;95797.31;;;2.05
78917;BMP280;68315;48.608;11.436;2024-01-15T11:27:04;95788.19;;;2.08
78917;BMP280;68315;48.608;11.436;2024-01-15T11:29:34;95788.41;;;2.10
78917;BMP280;68315;48.608;11.436;2024-01-15T11:32:09;95792.63;;;2.05
78917;BMP280;68315;48.608;11.436;2024-01-15T11:34:58;95789.66;;;2.09
78917;BMP280;68315;48.608;11.436;2024-01-15T11:37:25;95787.91;;;2.11
78917;BMP280;68315;48.608;11.436;2024-01-15T11:39:52;95785.66;;;2.15
78917;BMP280;68315;48.608;11.436;2024-01-15T11:42:20;95784.88;;;2.20
78917;BMP280;68315;48.608;11.436;2024-01-15T11:44:45;95783.41;;;2.25
78917;BMP280;68315;48.608;11.436;2024-01-15T11:47:12;95775.50;;;2.27
78917;BMP280;68315;48.608;11.436;2024-01-15T11:52:06;95762.78;;;2.40
78917;BMP280;68315;48.608;11.436;2024-01-15T11:54:33;95764.50;;;2.43
78917;BMP280;68315;48.608;11.436;2024-01-15T11:57:03;95755.81;;;2.51
78917;BMP280;68315;48.608;11.436;2024-01-15T11:59:32;95759.38;;;2.64
78917;BMP280;68315;48.608;11.436;2024-01-15T12:01:57;95764.91;;;2.77
78917;BMP280;68315;48.608;11.436;2024-01-15T12:04:22;95764.91;;;2.77
78917;BMP280;68315;48.608;11.436;2024-01-15T12:06:47;95769.59;;;2.77
78917;BMP280;68315;48.608;11.436;2024-01-15T12:09:13;95764.00;;;2.69
78917;BMP280;68315;48.608;11.436;2024-01-15T12:11:42;95778.56;;;2.66
78917;BMP280;68315;48.608;11.436;2024-01-15T12:14:11;95780.41;;;2.58
78917;BMP280;68315;48.608;11.436;2024-01-15T12:16:37;95768.88;;;2.52
78917;BMP280;68315;48.608;11.436;2024-01-15T12:19:02;95758.06;;;2.47
78917;BMP280;68315;48.608;11.436;2024-01-15T12:21:27;95760.09;;;2.40
78917;BMP280;68315;48.608;11.436;2024-01-15T12:23:53;95759.63;;;2.36
78917;BMP280;68315;48.608;11.436;2024-01-15T12:26:19;95752.34;;;2.26
78917;BMP280;68315;48.608;11.436;2024-01-15T12:28:44;95750.38;;;2.26
78917;BMP280;68315;48.608;11.436;2024-01-15T12:31:10;95751.41;;;2.18
78917;BMP280;68315;48.608;11.436;2024-01-15T12:33:35;95737.44;;;2.14
78917;BMP280;68315;48.608;11.436;2024-01-15T12:36:00;95737.13;;;2.17
78917;BMP280;68315;48.608;11.436;2024-01-15T12:38:28;95740.34;;;2.16
78917;BMP280;68315;48.608;11.436;2024-01-15T12:40:53;95737.19;;;2.12
78917;BMP280;68315;48.608;11.436;2024-01-15T12:43:19;95744.81;;;2.13
78917;BMP280;68315;48.608;11.436;2024-01-15T12:45:45;95737.66;;;2.16
78917;BMP280;68315;48.608;11.436;2024-01-15T12:48:10;95741.38;;;2.13
78917;BMP280;68315;48.608;11.436;2024-01-15T12:50:36;95736.72;;;2.08
78917;BMP280;68315;48.608;11.436;2024-01-15T12:53:02;95738.44;;;2.11
78917;BMP280;68315;48.608;11.436;2024-01-15T12:55:27;95738.66;;;2.13
78917;BMP280;68315;48.608;11.436;2024-01-15T12:57:52;95737.19;;;2.12
78917;BMP280;68315;48.608;11.436;2024-01-15T13:00:19;95733.06;;;2.05
78917;BMP280;68315;48.608;11.436;2024-01-15T13:02:45;95731.84;;;2.01
78917;BMP280;68315;48.608;11.436;2024-01-15T13:05:11;95726.94;;;1.99
78917;BMP280;68315;48.608;11.436;2024-01-15T13:07:36;95715.91;;;1.92
78917;BMP280;68315;48.608;11.436;2024-01-15T13:10:02;95723.75;;;1.95
78917;BMP280;68315;48.608;11.436;2024-01-15T13:12:30;95714.66;;;1.93
78917;BMP280;68315;48.608;11.436;2024-01-15T13:14:55;95719.56;;;2.00
78917;BMP280;68315;48.608;11.436;2024-01-15T13:17:21;95720.09;;;1.93
78917;BMP280;68315;48.608;11.436;2024-01-15T13:19:46;95722.03;;;1.92
78917;BMP280;68315;48.608;11.436;2024-01-15T13:22:12;95725.47;;;1.98
78917;BMP280;68315;48.608;11.436;2024-01-15T13:24:39;95726.38;;;2.06
78917;BMP280;68315;48.608;11.436;2024-01-15T13:27:04;95713.41;;;1.99
78917;BMP280;68315;48.608;11.436;2024-01-15T13:29:31;95717.06;;;2.02
78917;BMP280;68315;48.608;11.436;2024-01-15T13:31:57;95719.03;;;2.01
78917;BMP280;68315;48.608;11.436;2024-01-15T13:34:22;95722.00;;;1.98
78917;BMP280;68315;48.608;11.436;2024-01-15T13:36:47;95717.16;;;1.91
78917;BMP280;68315;48.608;11.436;2024-01-15T13:39:16;95712.72;;;1.88
78917;BMP280;68315;48.608;11.436;2024-01-15T13:41:45;95714.50;;;1.85
78917;BMP280;68315;48.608;11.436;2024-01-15T13:44:11;95711.09;;;1.79
78917;BMP280;68315;48.608;11.436;2024-01-15T13:46:38;95721.44;;;1.75
78917;BMP280;68315;48.608;11.436;2024-01-15T13:49:04;95717.75;;;1.78
78917;BMP280;68315;48.608;11.436;2024-01-15T13:51:31;95730.78;;;1.79
78917;BMP280;68315;48.608;11.436;2024-01-15T13:53:56;95736.97;;;1.74
78917;BMP280;68315;48.608;11.436;2024-01-15T13:56:22;95735.53;;;1.68
78917;BMP280;68315;48.608;11.436;2024-01-15T13:58:47;95753.28;;;1.63